createdAt,value
2022-09-23T00:01:03.891Z,73.61
2022-09-23T00:03:32.554Z,72.62
2022-09-23T00:06:01.412Z,73.73
2022-09-23T00:08:29.169Z,74.37
2022-09-23T00:10:56.718Z,74.58
2022-09-23T00:13:26.474Z,73.53
2022-09-23T00:15:53.407Z,72.93
2022-09-23T00:18:20.481Z,73.35
2022-09-23T00:20:47.830Z,74.10
2022-09-23T00:23:14.843Z,74.10
2022-09-23T00:25:41.691Z,74.53
2022-09-23T00:28:10.071Z,75.14
2022-09-23T00:30:37.067Z,74.52
2022-09-23T00:33:04.370Z,74.89
2022-09-23T00:35:31.212Z,75.06
2022-09-23T00:37:58.111Z,74.78
2022-09-23T00:40:24.939Z,74.85
2022-09-23T00:42:51.779Z,73.92
2022-09-23T00:45:19.312Z,73.20
2022-09-23T00:47:59.508Z,73.46
2022-09-23T00:50:50.477Z,73.76
2022-09-23T00:53:21.239Z,74.42
2022-09-23T00:56:04.752Z,73.97
2022-09-23T00:58:34.074Z,73.75
2022-09-23T01:01:02.503Z,73.77
2022-09-23T01:03:30.395Z,73.53
2022-09-23T01:05:58.060Z,72.97
2022-09-23T01:08:27.016Z,73.59
2022-09-23T01:11:01.587Z,73.76
2022-09-23T01:14:03.773Z,74.19
2022-09-23T01:16:58.748Z,73.61
2022-09-23T01:19:46.640Z,73.99
2022-09-23T01:37:14.766Z,75.88
2022-09-23T01:39:44.296Z,76.36
2022-09-23T01:49:13.508Z,75.85
2022-09-23T01:51:46.184Z,76.98
2022-09-23T02:00:53.945Z,76.51
2022-09-23T02:06:50.769Z,74.85
2022-09-23T02:09:24.666Z,75.22
2022-09-23T02:11:58.810Z,75.03
2022-09-23T02:14:32.114Z,75.31
2022-09-23T02:17:04.778Z,76.32
2022-09-23T02:19:36.912Z,76.05
2022-09-23T02:22:14.301Z,75.47
2022-09-23T02:24:41.311Z,75.36
2022-09-23T02:30:56.453Z,73.92
2022-09-23T02:49:30.711Z,75.04
2022-09-23T04:00:03.435Z,74.92
2022-09-23T04:02:40.173Z,76.12
2022-09-23T04:19:12.361Z,78.20
2022-09-23T04:21:40.041Z,77.77
2022-09-23T04:24:07.405Z,77.59
2022-09-23T04:26:36.198Z,77.41
2022-09-23T04:29:20.774Z,78.15
2022-09-23T04:31:48.461Z,78.36
2022-09-23T04:34:17.953Z,78.10
2022-09-23T04:36:49.526Z,78.06
2022-09-23T04:39:19.833Z,78.40
2022-09-23T04:41:47.767Z,78.56
2022-09-23T04:44:15.541Z,79.54
2022-09-23T04:46:43.293Z,79.54
2022-09-23T04:49:10.285Z,79.19
2022-09-23T04:51:40.329Z,79.29
2022-09-23T04:54:07.494Z,79.25
2022-09-23T04:56:34.419Z,79.52
2022-09-23T04:59:01.965Z,79.85
2022-09-23T05:01:31.932Z,80.66
2022-09-23T05:04:01.371Z,80.75
2022-09-23T05:06:32.797Z,80.42
2022-09-23T05:08:59.686Z,80.17
2022-09-23T05:11:29.405Z,80.21
2022-09-23T05:13:56.555Z,80.00
2022-09-23T05:16:24.461Z,79.84
2022-09-23T05:18:52.996Z,79.82
2022-09-23T05:21:22.516Z,79.70
2022-09-23T05:23:54.292Z,79.69
2022-09-23T05:26:22.954Z,80.94
2022-09-23T05:28:50.220Z,79.85
2022-09-23T05:31:23.583Z,80.55
2022-09-23T05:33:56.206Z,79.98
2022-09-23T05:36:24.216Z,79.69
2022-09-23T05:38:51.760Z,79.58
2022-09-23T05:41:21.809Z,79.45
2022-09-23T05:43:49.594Z,79.37
2022-09-23T05:46:24.346Z,79.74
2022-09-23T05:48:51.670Z,79.52
2022-09-23T05:51:20.973Z,79.28
2022-09-23T05:53:49.076Z,78.79
2022-09-23T05:56:17.810Z,78.53
2022-09-23T05:58:44.833Z,78.27
2022-09-23T06:01:20.780Z,77.87
2022-09-23T06:03:48.704Z,78.11
2022-09-23T06:06:17.553Z,77.34
2022-09-23T06:08:46.097Z,77.41
2022-09-23T06:11:13.928Z,76.41
2022-09-23T06:13:42.154Z,75.94
2022-09-23T06:16:14.861Z,77.07
2022-09-23T06:18:43.540Z,77.55
2022-09-23T06:21:16.190Z,77.22
2022-09-23T06:23:44.402Z,77.48
2022-09-23T06:26:13.077Z,77.82
2022-09-23T06:31:34.952Z,76.30
2022-09-23T06:34:10.925Z,76.55
2022-09-23T06:36:44.356Z,76.91
2022-09-23T06:39:12.653Z,76.64
2022-09-23T06:41:39.511Z,76.24
2022-09-23T06:44:06.557Z,75.83
2022-09-23T06:46:33.852Z,74.23
2022-09-23T06:49:00.593Z,74.97
2022-09-23T06:51:27.507Z,74.56
2022-09-23T06:53:54.487Z,74.38
2022-09-23T06:56:21.561Z,74.02
2022-09-23T06:58:48.637Z,73.63
2022-09-23T07:01:16.931Z,73.42
2022-09-23T07:03:45.480Z,72.12
2022-09-23T07:06:12.248Z,71.58
2022-09-23T07:08:42.195Z,69.32
2022-09-23T07:11:09.985Z,67.17
2022-09-23T07:13:36.875Z,64.21
2022-09-23T07:16:03.850Z,62.95
2022-09-23T07:18:36.747Z,61.77
2022-09-23T07:21:13.251Z,63.83
2022-09-23T07:23:40.068Z,64.11
2022-09-23T07:26:06.794Z,62.25
2022-09-23T07:28:33.875Z,59.26
2022-09-23T07:31:16.688Z,60.67
2022-09-23T07:33:44.771Z,57.83
2022-09-23T07:36:14.848Z,56.39
2022-09-23T07:38:45.494Z,53.79
2022-09-23T07:41:15.878Z,54.10
2022-09-23T07:43:42.889Z,56.65
2022-09-23T07:46:15.266Z,56.08
2022-09-23T07:48:42.493Z,55.25
2022-09-23T07:51:16.990Z,52.51
2022-09-23T07:53:47.991Z,53.13
2022-09-23T07:56:15.192Z,52.88
2022-09-23T07:58:42.102Z,51.91
2022-09-23T08:01:10.758Z,51.23
2022-09-23T08:03:38.437Z,51.78
2022-09-23T08:06:12.694Z,50.40
2022-09-23T08:08:41.072Z,50.52
2022-09-23T08:11:09.447Z,51.09
2022-09-23T08:13:36.631Z,51.73
2022-09-23T08:16:03.810Z,49.58
2022-09-23T08:18:30.964Z,50.79
2022-09-23T08:20:59.371Z,50.29
2022-09-23T08:23:26.556Z,51.20
2022-09-23T08:26:01.793Z,50.51
2022-09-23T08:28:28.833Z,48.59
2022-09-23T08:30:56.379Z,47.87
2022-09-23T08:33:24.079Z,48.68
2022-09-23T08:35:52.514Z,48.70
2022-09-23T08:38:20.093Z,50.64
2022-09-23T08:40:49.661Z,47.78
2022-09-23T08:43:26.611Z,47.69
2022-09-23T08:45:57.562Z,45.91
2022-09-23T08:48:30.771Z,46.28
2022-09-23T08:51:14.332Z,44.71
2022-09-23T08:53:41.108Z,44.90
2022-09-23T08:56:26.355Z,45.44
2022-09-23T08:59:09.232Z,42.39
2022-09-23T09:01:54.497Z,44.29
2022-09-23T09:04:36.156Z,44.10
2022-09-23T09:07:35.208Z,45.02
2022-09-23T09:10:18.708Z,45.19
2022-09-23T09:13:09.928Z,44.55
2022-09-23T09:15:55.215Z,45.22
2022-09-23T09:18:22.235Z,45.79
2022-09-23T09:20:58.011Z,43.59
2022-09-23T09:23:33.992Z,41.01
2022-09-23T09:26:04.475Z,40.26
2022-09-23T09:29:23.308Z,41.43
2022-09-23T09:31:50.555Z,40.62
2022-09-23T09:34:38.447Z,39.14
2022-09-23T09:37:15.799Z,38.46
2022-09-23T09:39:42.829Z,38.86
2022-09-23T09:42:15.997Z,39.99
2022-09-23T09:44:53.853Z,39.08
2022-09-23T09:47:59.829Z,39.17
2022-09-23T09:50:47.122Z,41.97
2022-09-23T09:53:19.982Z,42.59
2022-09-23T09:56:02.196Z,40.75
2022-09-23T09:58:50.917Z,39.27
2022-09-23T10:01:20.222Z,39.17
2022-09-23T10:03:47.591Z,37.78
2022-09-23T10:06:26.389Z,35.27
2022-09-23T10:09:01.986Z,38.99
2022-09-23T10:11:30.126Z,38.42
2022-09-23T10:14:13.246Z,38.40
2022-09-23T10:16:40.904Z,37.30
2022-09-23T10:19:38.371Z,36.17
2022-09-23T10:22:18.783Z,35.68
2022-09-23T10:24:50.988Z,35.79
2022-09-23T10:27:27.707Z,34.70
2022-09-23T10:29:57.173Z,36.08
2022-09-23T10:32:31.551Z,38.05
2022-09-23T10:35:07.056Z,38.27
2022-09-23T10:37:54.352Z,36.52
2022-09-23T10:40:30.406Z,35.54
2022-09-23T10:43:06.355Z,34.49
2022-09-23T10:45:42.702Z,34.94
2022-09-23T10:48:25.557Z,32.58
2022-09-23T10:50:55.519Z,32.90
2022-09-23T10:53:27.999Z,33.02
2022-09-23T10:56:00.383Z,34.90
2022-09-23T10:58:53.928Z,35.36
2022-09-23T11:01:23.848Z,33.63
2022-09-23T11:04:16.616Z,33.67
2022-09-23T11:06:55.603Z,33.02
2022-09-23T11:09:41.213Z,32.76
2022-09-23T11:12:37.163Z,34.62
2022-09-23T11:15:25.474Z,34.46
2022-09-23T11:18:15.389Z,34.48
2022-09-23T11:20:54.246Z,33.02
2022-09-23T11:23:51.373Z,32.28
2022-09-23T11:26:39.921Z,31.63
2022-09-23T11:29:53.593Z,29.92
2022-09-23T11:32:43.930Z,30.51
2022-09-23T11:35:17.801Z,33.24
2022-09-23T11:37:57.334Z,36.52
2022-09-23T11:40:37.559Z,37.85
2022-09-23T11:43:23.895Z,39.30
2022-09-23T11:46:21.002Z,41.65
2022-09-23T11:49:20.884Z,42.97
2022-09-23T11:52:03.167Z,42.86
2022-09-23T11:54:40.417Z,42.53
2022-09-23T11:57:16.641Z,44.21
2022-09-23T11:59:50.360Z,44.25
2022-09-23T12:02:22.995Z,45.47
2022-09-23T12:05:16.743Z,45.34
2022-09-23T12:08:05.340Z,48.58
2022-09-23T12:10:53.544Z,50.19
2022-09-23T12:13:29.046Z,48.94
2022-09-23T12:16:32.969Z,47.46
2022-09-23T12:19:27.637Z,47.95
2022-09-23T12:22:25.880Z,47.35
2022-09-23T12:25:11.163Z,48.76
2022-09-23T12:27:41.959Z,49.61
2022-09-23T12:30:20.754Z,49.63
2022-09-23T12:32:47.939Z,49.21
2022-09-23T12:35:24.696Z,47.69
2022-09-23T12:37:53.049Z,42.84
2022-09-23T12:40:32.004Z,41.64
2022-09-23T12:42:59.326Z,39.66
2022-09-23T12:45:28.986Z,38.76
2022-09-23T12:47:55.745Z,38.14
2022-09-23T12:50:53.867Z,34.98
2022-09-23T12:53:35.765Z,34.88
2022-09-23T12:56:16.349Z,35.06
2022-09-23T12:58:43.049Z,34.20
2022-09-23T13:01:16.096Z,34.18
2022-09-23T13:03:57.889Z,33.96
2022-09-23T13:06:52.200Z,36.36
2022-09-23T13:09:27.108Z,37.69
2022-09-23T13:12:00.409Z,38.33
2022-09-23T13:14:29.492Z,38.99
2022-09-23T13:16:57.772Z,39.97
2022-09-23T13:19:27.324Z,40.56
2022-09-23T13:21:54.231Z,40.95
2022-09-23T13:24:34.868Z,41.02
2022-09-23T13:27:43.256Z,40.39
2022-09-23T13:30:15.836Z,38.25
2022-09-23T13:32:48.851Z,37.51
2022-09-23T13:35:22.275Z,38.29
2022-09-23T13:37:49.740Z,36.04
2022-09-23T13:40:26.886Z,35.56
2022-09-23T13:43:01.170Z,35.86
2022-09-23T13:45:29.891Z,36.53
2022-09-23T13:48:06.646Z,35.17
2022-09-23T13:50:37.512Z,34.39
2022-09-23T13:53:11.656Z,33.12
2022-09-23T13:55:39.771Z,33.07
2022-09-23T13:58:28.328Z,33.32
2022-09-23T14:00:55.314Z,33.15
2022-09-23T14:03:36.082Z,33.58
2022-09-23T14:06:11.312Z,35.07
2022-09-23T14:08:46.100Z,36.01
2022-09-23T14:11:21.639Z,35.94
2022-09-23T14:13:51.457Z,37.25
2022-09-23T14:16:18.459Z,38.24
2022-09-23T14:18:48.031Z,38.57
2022-09-23T14:21:32.419Z,38.52
2022-09-23T14:24:15.694Z,38.94
2022-09-23T14:26:45.681Z,39.26
2022-09-23T14:29:19.306Z,36.98
2022-09-23T14:32:00.669Z,36.89
2022-09-23T14:35:05.289Z,37.75
2022-09-23T14:37:38.384Z,38.63
2022-09-23T14:40:19.544Z,39.02
2022-09-23T14:42:56.665Z,40.27
2022-09-23T14:45:27.153Z,40.65
2022-09-23T14:47:59.114Z,41.04
2022-09-23T14:50:29.678Z,41.40
2022-09-23T14:52:56.504Z,41.82
2022-09-23T14:55:29.003Z,41.59
2022-09-23T14:58:15.525Z,40.74
2022-09-23T15:00:56.353Z,40.78
2022-09-23T15:03:23.770Z,40.77
2022-09-23T15:05:56.079Z,40.68
2022-09-23T15:08:26.667Z,39.78
2022-09-23T15:10:54.989Z,40.52
2022-09-23T15:13:27.604Z,40.63
2022-09-23T15:15:56.516Z,40.80
2022-09-23T15:18:33.588Z,41.05
2022-09-23T15:21:12.345Z,41.09
2022-09-23T15:23:47.323Z,40.70
2022-09-23T15:26:16.237Z,41.45
2022-09-23T15:28:44.078Z,42.74
2022-09-23T15:31:16.509Z,43.73
2022-09-23T15:33:51.471Z,44.22
2022-09-23T15:36:24.874Z,44.99
2022-09-23T15:38:52.799Z,44.60
2022-09-23T15:41:19.590Z,44.94
2022-09-23T15:43:46.270Z,45.26
2022-09-23T15:46:25.724Z,45.38
2022-09-23T15:48:59.823Z,46.17
2022-09-23T15:51:28.030Z,46.74
2022-09-23T15:53:55.527Z,46.85
2022-09-23T15:56:23.471Z,45.91
2022-09-23T15:58:50.874Z,45.08
2022-09-23T16:01:24.510Z,45.49
2022-09-23T16:03:51.805Z,45.88
2022-09-23T16:06:18.681Z,45.53
2022-09-23T16:08:45.750Z,45.46
2022-09-23T16:11:19.046Z,46.03
2022-09-23T16:13:46.111Z,46.81
2022-09-23T16:16:12.891Z,46.46
2022-09-23T16:18:41.054Z,46.80
2022-09-23T16:21:14.530Z,46.59
2022-09-23T16:23:44.397Z,46.63
2022-09-23T16:26:17.316Z,46.64
2022-09-23T16:28:45.861Z,46.99
2022-09-23T16:31:13.213Z,47.04
2022-09-23T16:33:40.346Z,47.37
2022-09-23T16:36:14.568Z,47.52
2022-09-23T16:38:41.615Z,48.07
2022-09-23T16:41:08.692Z,48.11
2022-09-23T16:43:35.884Z,47.88
2022-09-23T16:46:02.869Z,47.93
2022-09-23T16:48:29.669Z,48.50
2022-09-23T16:50:56.647Z,48.44
2022-09-23T16:53:23.621Z,49.22
2022-09-23T16:55:50.456Z,49.69
2022-09-23T16:58:17.366Z,50.82
2022-09-23T17:00:44.310Z,52.04
2022-09-23T17:03:12.744Z,53.26
2022-09-23T17:05:39.586Z,53.09
2022-09-23T17:08:06.537Z,52.58
2022-09-23T17:10:33.579Z,52.41
2022-09-23T17:13:00.636Z,53.56
2022-09-23T17:15:27.565Z,53.77
2022-09-23T17:17:54.272Z,54.34
2022-09-23T17:20:21.194Z,54.86
2022-09-23T17:22:48.280Z,54.81
2022-09-23T17:25:15.144Z,54.93
2022-09-23T17:27:42.010Z,54.48
2022-09-23T17:30:09.593Z,54.31
2022-09-23T17:32:36.663Z,54.56
2022-09-23T17:35:03.809Z,54.12
2022-09-23T17:37:31.353Z,54.48
2022-09-23T17:39:58.303Z,54.67
2022-09-23T17:42:25.352Z,55.22
2022-09-23T17:44:52.277Z,56.39
2022-09-23T17:47:19.478Z,55.90
2022-09-23T17:49:46.574Z,54.68
2022-09-23T17:52:13.345Z,54.69
2022-09-23T17:54:40.211Z,55.10
2022-09-23T17:57:07.481Z,55.34
2022-09-23T17:59:34.355Z,55.79
2022-09-23T18:02:01.203Z,56.48
2022-09-23T18:04:28.408Z,56.11
2022-09-23T18:06:55.258Z,56.42
2022-09-23T18:09:22.206Z,57.31
2022-09-23T18:11:49.234Z,57.73
2022-09-23T18:14:20.607Z,59.07
2022-09-23T18:16:52.881Z,59.13
2022-09-23T18:19:21.608Z,58.80
2022-09-23T18:21:54.158Z,58.99
2022-09-23T18:24:32.180Z,59.26
2022-09-23T18:27:00.432Z,58.57
2022-09-23T18:29:27.682Z,59.25
2022-09-23T18:31:54.715Z,58.78
2022-09-23T18:34:22.038Z,58.67
2022-09-23T18:36:48.890Z,59.04
2022-09-23T18:39:15.937Z,60.13
2022-09-23T18:41:43.054Z,61.30
2022-09-23T18:44:09.951Z,60.40
2022-09-23T18:46:36.981Z,59.65
2022-09-23T18:49:04.436Z,58.91
2022-09-23T18:51:32.674Z,59.16
2022-09-23T18:54:00.883Z,59.12
2022-09-23T18:56:31.407Z,60.05
2022-09-23T18:58:58.250Z,61.28
2022-09-23T19:01:25.642Z,61.30
2022-09-23T19:03:58.904Z,62.10
2022-09-23T19:06:26.453Z,61.68
2022-09-23T19:08:54.516Z,61.47
2022-09-23T19:11:22.775Z,61.31
2022-09-23T19:13:54.530Z,61.44
2022-09-23T19:16:22.003Z,61.51
2022-09-23T19:18:49.896Z,61.33
2022-09-23T19:21:20.019Z,61.68
2022-09-23T19:23:49.574Z,61.92
2022-09-23T19:26:18.959Z,62.01
2022-09-23T19:28:55.573Z,62.23
2022-09-23T19:31:27.676Z,61.82
2022-09-23T19:34:00.405Z,61.66
2022-09-23T19:36:32.854Z,62.30
2022-09-23T19:39:06.459Z,62.67
2022-09-23T19:41:33.782Z,62.88
2022-09-23T19:44:01.629Z,62.74
2022-09-23T19:46:32.058Z,63.19
2022-09-23T19:49:00.617Z,62.48
2022-09-23T19:51:27.966Z,62.93
2022-09-23T19:53:54.971Z,62.91
2022-09-23T19:56:22.470Z,62.74
2022-09-23T19:58:52.326Z,62.38
2022-09-23T20:01:19.337Z,62.71
2022-09-23T20:03:47.384Z,64.23
2022-09-23T20:06:15.613Z,64.52
2022-09-23T20:08:42.770Z,65.43
2022-09-23T20:11:15.811Z,65.64
2022-09-23T20:13:44.909Z,65.69
2022-09-23T20:16:15.474Z,65.52
2022-09-23T20:18:42.930Z,65.35
2022-09-23T20:21:12.598Z,65.20
2022-09-23T20:23:39.714Z,65.34
2022-09-23T20:26:07.865Z,65.69
2022-09-23T20:28:34.687Z,65.79
2022-09-23T20:31:01.607Z,66.03
2022-09-23T20:33:28.469Z,64.88
2022-09-23T20:35:55.293Z,65.39
2022-09-23T20:38:22.661Z,65.55
2022-09-23T20:40:59.552Z,66.11
2022-09-23T20:43:26.453Z,65.97
2022-09-23T20:45:54.849Z,65.59
2022-09-23T20:48:23.515Z,64.78
2022-09-23T20:50:50.550Z,65.04
2022-09-23T20:53:18.703Z,65.24
2022-09-23T20:55:53.451Z,65.64
2022-09-23T20:58:24.510Z,65.03
2022-09-23T21:00:51.532Z,65.12
2022-09-23T21:03:18.476Z,64.96
2022-09-23T21:05:45.329Z,64.86
2022-09-23T21:08:11.993Z,64.68
2022-09-23T21:10:39.052Z,65.18
2022-09-23T21:13:06.925Z,65.56
2022-09-23T21:15:36.814Z,65.89
2022-09-23T21:18:03.974Z,66.14
2022-09-23T21:20:30.772Z,66.89
2022-09-23T21:22:57.596Z,66.51
2022-09-23T21:25:27.985Z,66.65
2022-09-23T21:27:55.424Z,67.34
2022-09-23T21:30:22.213Z,67.81
2022-09-23T21:32:49.503Z,66.99
2022-09-23T21:35:16.231Z,67.06
2022-09-23T21:37:43.051Z,66.70
2022-09-23T21:40:10.890Z,66.59
2022-09-23T21:42:37.736Z,67.69
2022-09-23T21:45:04.918Z,67.24
2022-09-23T21:47:32.186Z,68.11
2022-09-23T21:49:58.870Z,67.80
2022-09-23T21:52:25.629Z,67.67
2022-09-23T21:54:52.809Z,68.33
2022-09-23T21:57:19.744Z,68.54
2022-09-23T21:59:46.488Z,68.57
2022-09-23T22:02:13.915Z,68.04
2022-09-23T22:04:40.971Z,68.07
2022-09-23T22:07:07.734Z,68.49
2022-09-23T22:09:34.952Z,68.58
2022-09-23T22:12:02.037Z,68.33
2022-09-23T22:14:28.806Z,68.31
2022-09-23T22:16:58.645Z,68.43
2022-09-23T22:19:30.473Z,68.38
2022-09-23T22:21:57.424Z,68.90
2022-09-23T22:24:24.796Z,67.72
2022-09-23T22:26:51.587Z,68.61
2022-09-23T22:29:18.809Z,69.15
2022-09-23T22:31:45.862Z,69.72
2022-09-23T22:34:37.764Z,70.01
2022-09-23T22:37:02.610Z,70.37
2022-09-23T22:39:30.484Z,70.13
2022-09-23T22:41:57.677Z,69.84
2022-09-23T22:44:25.297Z,68.95
2022-09-23T22:46:52.251Z,68.60
2022-09-23T22:49:19.245Z,68.30
2022-09-23T22:51:46.435Z,67.95
2022-09-23T22:54:13.216Z,68.07
2022-09-23T22:56:40.026Z,68.40
2022-09-23T22:59:08.108Z,67.71
2022-09-23T23:01:35.388Z,68.04
2022-09-23T23:04:02.877Z,68.18
2022-09-23T23:06:32.129Z,68.14
2022-09-23T23:08:58.861Z,68.28
2022-09-23T23:11:25.693Z,68.54
2022-09-23T23:13:52.846Z,67.83
2022-09-23T23:16:19.952Z,67.46
2022-09-23T23:18:47.684Z,68.13
2022-09-23T23:21:18.256Z,67.82
2022-09-23T23:23:47.553Z,68.39
2022-09-23T23:26:17.657Z,69.03
2022-09-23T23:28:44.713Z,70.10
2022-09-23T23:31:14.259Z,70.84
2022-09-23T23:33:41.314Z,70.61
2022-09-23T23:36:09.606Z,70.90
2022-09-23T23:38:37.734Z,70.59
2022-09-23T23:41:09.701Z,70.30
2022-09-23T23:43:37.822Z,70.62
2022-09-23T23:46:06.202Z,71.53
2022-09-23T23:48:35.434Z,71.62
2022-09-23T23:51:08.515Z,72.03
2022-09-23T23:53:37.955Z,71.73
2022-09-23T23:56:14.114Z,71.15
2022-09-23T23:58:41.936Z,71.71
